createdAt,value
2023-11-21T00:02:47.044Z,102656.19
2023-11-21T00:07:48.882Z,102557.91
2023-11-21T00:12:56.558Z,102657.13
2023-11-21T00:18:00.675Z,102658.16
2023-11-21T00:23:05.386Z,102658.63
2023-11-21T00:28:09.534Z,102639.03
2023-11-21T00:33:11.531Z,102686.63
2023-11-21T00:38:21.115Z,102670.50
2023-11-21T00:43:26.115Z,102661.91
2023-11-21T00:48:30.467Z,102640.91
2023-11-21T00:53:32.415Z,102677.44
2023-11-21T00:58:34.414Z,102657.47
2023-11-21T01:03:38.995Z,102688.81
2023-11-21T01:08:41.182Z,102670.72
2023-11-21T01:13:43.890Z,102657.72
2023-11-21T01:18:48.068Z,102657.94
2023-11-21T01:23:49.975Z,102639.88
2023-11-21T01:28:52.004Z,102645.59
2023-11-21T01:33:56.616Z,102683.25
2023-11-21T01:39:01.128Z,102697.88
2023-11-21T01:44:09.173Z,102682.22
2023-11-21T01:49:14.871Z,102667.00
2023-11-21T01:54:21.148Z,102693.47
2023-11-21T01:59:25.226Z,102663.03
2023-11-21T02:04:27.198Z,102707.97
2023-11-21T02:09:31.100Z,102666.84
2023-11-21T02:14:33.338Z,102679.03
2023-11-21T02:19:35.789Z,102692.25
2023-11-21T02:24:45.426Z,102703.66
2023-11-21T02:29:47.443Z,102699.03
2023-11-21T02:34:49.444Z,102755.41
2023-11-21T02:39:56.279Z,102721.09
2023-11-21T02:45:00.372Z,102737.50
2023-11-21T02:50:05.265Z,102727.81
2023-11-21T02:55:09.911Z,102705.63
2023-11-21T03:00:16.416Z,102714.97
2023-11-21T03:05:18.429Z,102727.78
2023-11-21T03:10:20.638Z,102710.75
2023-11-21T03:15:25.664Z,102719.16
2023-11-21T03:20:27.663Z,102752.53
2023-11-21T03:25:30.328Z,102732.09
2023-11-21T03:30:32.480Z,102747.53
2023-11-21T03:35:34.397Z,102765.94
2023-11-21T03:40:36.924Z,102769.69
2023-11-21T03:45:38.907Z,102738.72
2023-11-21T03:50:40.930Z,102769.75
2023-11-21T03:55:43.066Z,102750.47
2023-11-21T04:00:45.083Z,102766.94
2023-11-21T04:05:47.395Z,102768.56
2023-11-21T04:10:49.999Z,102775.59
2023-11-21T04:15:52.408Z,102760.22
2023-11-21T04:20:54.389Z,102779.03
2023-11-21T04:25:58.344Z,102778.28
2023-11-21T04:31:03.914Z,102812.22
2023-11-21T04:36:06.314Z,102787.47
2023-11-21T04:41:09.018Z,102784.59
2023-11-21T04:46:13.381Z,102825.09
2023-11-21T04:51:17.584Z,102824.88
2023-11-21T04:56:22.186Z,102809.06
2023-11-21T05:01:24.358Z,102841.31
2023-11-21T05:06:26.207Z,102821.75
2023-11-21T05:11:30.379Z,102772.00
2023-11-21T05:16:35.773Z,102828.88
2023-11-21T05:21:37.838Z,102857.38
2023-11-21T05:26:40.741Z,102788.66
2023-11-21T05:31:44.768Z,102857.63
2023-11-21T05:36:49.797Z,102851.91
2023-11-21T05:41:59.141Z,102821.44
2023-11-21T05:47:01.283Z,102885.47
2023-11-21T05:52:03.485Z,102885.81
2023-11-21T05:57:05.669Z,102837.72
2023-11-21T06:02:09.177Z,102849.59
2023-11-21T06:07:11.992Z,102846.78
2023-11-21T06:12:17.501Z,102813.22
2023-11-21T06:17:26.376Z,102828.94
2023-11-21T06:22:28.419Z,102871.81
2023-11-21T06:27:30.936Z,102860.06
2023-11-21T06:32:32.841Z,102847.50
2023-11-21T06:37:37.321Z,102878.06
2023-11-21T06:42:39.742Z,102872.09
2023-11-21T06:47:41.813Z,102909.88
2023-11-21T06:52:44.900Z,102925.69
2023-11-21T06:57:48.666Z,102876.78
2023-11-21T07:02:50.777Z,102912.22
2023-11-21T07:07:55.383Z,102891.03
2023-11-21T07:13:00.116Z,102895.56
2023-11-21T07:18:02.374Z,102903.69
2023-11-21T07:23:05.311Z,102910.28
2023-11-21T07:28:07.177Z,102959.41
2023-11-21T07:33:12.949Z,102964.53
2023-11-21T07:38:17.177Z,102956.53
2023-11-21T07:43:20.951Z,102931.56
2023-11-21T07:48:23.207Z,102931.50
2023-11-21T07:53:30.142Z,102975.56
2023-11-21T07:58:32.328Z,102993.38
2023-11-21T08:03:34.272Z,102998.59
2023-11-21T08:08:36.367Z,103007.19
2023-11-21T08:13:40.854Z,102942.91
2023-11-21T08:18:43.090Z,102999.88
2023-11-21T08:23:45.013Z,102983.16
2023-11-21T08:28:48.692Z,102987.78
2023-11-21T08:33:50.817Z,103001.06
2023-11-21T08:38:56.196Z,103013.94
2023-11-21T08:44:00.650Z,103043.69
2023-11-21T08:49:02.803Z,103004.84
2023-11-21T08:54:09.036Z,103039.16
2023-11-21T08:59:10.842Z,103017.53
2023-11-21T09:04:12.796Z,103007.88
2023-11-21T09:09:15.735Z,102992.78
2023-11-21T09:14:19.357Z,102970.00
2023-11-21T09:19:21.286Z,103013.53
2023-11-21T09:24:23.188Z,103031.53
2023-11-21T09:29:24.977Z,103001.34
2023-11-21T09:34:27.326Z,103015.78
2023-11-21T09:43:19.938Z,103003.84
2023-11-21T09:48:27.020Z,103048.00
2023-11-21T09:53:33.311Z,103041.88
2023-11-21T09:58:35.904Z,102971.94
2023-11-21T10:03:40.302Z,103024.44
2023-11-21T10:08:49.953Z,103028.75
2023-11-21T10:14:03.659Z,103042.88
2023-11-21T10:19:11.618Z,103063.59
2023-11-21T10:24:14.227Z,103016.41
2023-11-21T10:29:19.866Z,103038.91
2023-11-21T10:34:22.742Z,103074.28
2023-11-21T10:39:32.378Z,103049.75
2023-11-21T10:44:37.883Z,103064.16
2023-11-21T10:49:41.675Z,103082.38
2023-11-21T10:54:46.192Z,103066.00
2023-11-21T10:59:52.192Z,103067.16
2023-11-21T11:04:54.551Z,103024.06
2023-11-21T11:09:56.618Z,103044.31
2023-11-21T11:14:59.026Z,103047.28
2023-11-21T11:20:00.969Z,103044.81
2023-11-21T11:25:27.603Z,103069.00
2023-11-21T11:30:50.102Z,103056.03
2023-11-21T11:36:08.983Z,103057.66
2023-11-21T11:41:11.589Z,103041.69
2023-11-21T11:46:16.789Z,102986.81
2023-11-21T11:51:20.091Z,103020.50
2023-11-21T11:56:28.076Z,103048.09
2023-11-21T12:01:34.474Z,103054.59
2023-11-21T12:06:38.934Z,103007.09
2023-11-21T12:11:42.620Z,103025.28
2023-11-21T12:16:45.240Z,103024.84
2023-11-21T12:21:47.448Z,103050.66
2023-11-21T12:26:51.671Z,103044.81
2023-11-21T12:31:53.851Z,103052.22
2023-11-21T12:36:56.770Z,103051.69
2023-11-21T12:41:59.138Z,103013.56
2023-11-21T12:47:01.301Z,103015.38
2023-11-21T12:52:05.701Z,103018.81
2023-11-21T12:57:09.679Z,103007.16
2023-11-21T13:02:17.108Z,103049.34
2023-11-21T13:07:19.081Z,103006.28
2023-11-21T13:12:26.237Z,103047.41
2023-11-21T13:17:28.120Z,102999.03
2023-11-21T13:22:34.446Z,103016.88
2023-11-21T13:27:38.250Z,103035.84
2023-11-21T13:32:41.962Z,103016.03
2023-11-21T13:37:45.805Z,103050.66
2023-11-21T13:42:47.617Z,102998.16
2023-11-21T13:47:52.498Z,103029.81
2023-11-21T13:52:55.336Z,102992.56
2023-11-21T13:57:57.213Z,102995.47
2023-11-21T14:03:02.509Z,103000.41
2023-11-21T14:08:06.442Z,102974.06
2023-11-21T14:18:37.268Z,102767.41
2023-11-21T14:23:40.377Z,102621.94
2023-11-21T14:28:43.726Z,102715.56
2023-11-21T14:33:47.363Z,102627.13
2023-11-21T14:38:50.082Z,102658.78
2023-11-21T14:43:53.353Z,102995.63
2023-11-21T14:49:02.418Z,102794.91
2023-11-21T14:54:13.541Z,102965.28
2023-11-21T14:59:19.042Z,102999.41
2023-11-21T15:04:37.835Z,103006.44
2023-11-21T15:09:43.557Z,102983.78
2023-11-21T15:14:53.460Z,102992.09
2023-11-21T15:19:55.860Z,102965.88
2023-11-21T15:24:58.996Z,103030.91
2023-11-21T15:30:04.564Z,103021.50
2023-11-21T15:35:06.841Z,102982.34
2023-11-21T15:40:10.404Z,102983.75
2023-11-21T15:45:15.186Z,103019.22
2023-11-21T15:50:19.503Z,103002.06
2023-11-21T15:55:21.492Z,103018.56
2023-11-21T16:00:25.489Z,103011.59
2023-11-21T16:05:27.462Z,102949.84
2023-11-21T16:10:29.542Z,102956.19
2023-11-21T16:15:35.188Z,102904.38
2023-11-21T16:20:37.133Z,102983.75
2023-11-21T16:25:39.049Z,102994.06
2023-11-21T16:30:41.768Z,102955.72
2023-11-21T16:35:43.752Z,102940.31
2023-11-21T16:40:47.047Z,102978.25
2023-11-21T16:45:53.359Z,102955.00
2023-11-21T16:50:55.406Z,102958.56
2023-11-21T16:56:01.475Z,102968.38
2023-11-21T17:01:08.597Z,102969.94
2023-11-21T17:06:11.871Z,102961.56
2023-11-21T17:11:15.079Z,103000.41
2023-11-21T17:16:18.064Z,102936.47
2023-11-21T17:21:26.138Z,102962.19
2023-11-21T17:26:32.523Z,102966.78
2023-11-21T17:31:36.751Z,102951.16
2023-11-21T17:36:42.189Z,102950.94
2023-11-21T17:41:44.180Z,102965.31
2023-11-21T17:46:48.376Z,102959.81
2023-11-21T17:51:50.427Z,102948.56
2023-11-21T17:56:55.883Z,102927.78
2023-11-21T18:02:00.081Z,102984.25
2023-11-21T18:07:04.058Z,102988.44
2023-11-21T18:12:06.964Z,102940.19
2023-11-21T18:17:14.677Z,102933.84
2023-11-21T18:22:16.716Z,102968.84
2023-11-21T18:27:21.482Z,102960.28
2023-11-21T18:32:27.463Z,102976.50
2023-11-21T18:37:29.515Z,102962.34
2023-11-21T18:42:33.714Z,102972.81
2023-11-21T18:47:38.298Z,102991.97
2023-11-21T18:52:45.113Z,102948.78
2023-11-21T18:57:47.696Z,102959.31
2023-11-21T19:02:49.718Z,102925.41
2023-11-21T19:07:56.565Z,102884.22
2023-11-21T19:12:58.514Z,102893.81
2023-11-21T19:18:03.226Z,102964.13
2023-11-21T19:23:08.321Z,102942.03
2023-11-21T19:28:10.847Z,102970.22
2023-11-21T19:33:13.096Z,102942.75
2023-11-21T19:38:17.238Z,102988.25
2023-11-21T19:43:19.509Z,102996.78
2023-11-21T19:48:24.387Z,102984.06
2023-11-21T19:53:26.243Z,102987.75
2023-11-21T19:58:28.849Z,103008.28
2023-11-21T20:03:30.870Z,102991.97
2023-11-21T20:08:35.898Z,102970.19
2023-11-21T20:13:40.085Z,102946.47
2023-11-21T20:18:42.717Z,102983.75
2023-11-21T20:23:47.902Z,102963.47
2023-11-21T20:28:50.640Z,102968.63
2023-11-21T20:33:52.553Z,102957.13
2023-11-21T20:38:55.218Z,102960.59
2023-11-21T20:43:59.961Z,102982.50
2023-11-21T20:49:01.871Z,102984.53
2023-11-21T20:54:05.638Z,102957.53
2023-11-21T20:59:08.930Z,102969.97
2023-11-21T21:04:11.737Z,102942.75
2023-11-21T21:09:13.820Z,102957.06
2023-11-21T21:14:15.822Z,102954.59
2023-11-21T21:19:18.682Z,102917.56
2023-11-21T21:24:22.863Z,102927.47
2023-11-21T21:29:27.312Z,102956.34
2023-11-21T21:34:29.256Z,102954.09
2023-11-21T21:39:31.415Z,102935.22
2023-11-21T21:44:35.505Z,102939.19
2023-11-21T21:49:38.382Z,102937.38
2023-11-21T21:54:43.442Z,102959.03
2023-11-21T21:59:45.250Z,102949.38
2023-11-21T22:04:47.112Z,102919.81
2023-11-21T22:09:53.421Z,102917.75
2023-11-21T22:14:57.599Z,102883.53
2023-11-21T22:19:59.770Z,102849.94
2023-11-21T22:25:01.781Z,102922.56
2023-11-21T22:30:09.501Z,102921.97
2023-11-21T22:35:14.181Z,102892.47
2023-11-21T22:40:16.518Z,102914.69
2023-11-21T22:45:19.373Z,102875.91
2023-11-21T22:50:21.365Z,102896.84
2023-11-21T22:55:23.278Z,102919.19
2023-11-21T23:00:30.658Z,102901.66
2023-11-21T23:05:32.696Z,102888.22
2023-11-21T23:10:35.300Z,102921.66
2023-11-21T23:15:37.475Z,102545.72
2023-11-21T23:20:40.088Z,102638.16
2023-11-21T23:25:42.184Z,102642.16
2023-11-21T23:30:44.803Z,102877.50
2023-11-21T23:35:47.401Z,102820.19
2023-11-21T23:40:49.209Z,102867.13
2023-11-21T23:45:51.028Z,102840.41
2023-11-21T23:50:55.574Z,102837.81
2023-11-21T23:56:00.289Z,102844.97
